Time;durP1;ratioP1;P1;durP2;ratioP2;P2;SDS_P1;SDS_P2;PMS_P1;PMS_P2;Temp;Humidity;BMP_temperature;BMP_pressure;BME280_temperature;BME280_humidity;BME280_pressure;Samples;Min_cycle;Max_cycle;Signal;HPM_P1;HPM_P2
2023/06/01 00:00:47;;;;;;;22.30;5.37;;;;;;;10.15;100.00;102339.78;7396527;19;20491;-39
2023/06/01 00:03:16;;;;;;;17.50;4.90;;;;;;;10.31;100.00;102347.78;7392248;19;20441;-40
2023/06/01 00:05:46;;;;;;;11.93;4.57;;;;;;;10.23;100.00;102330.88;7395821;19;20417;-39
2023/06/01 00:08:18;;;;;;;16.13;4.50;;;;;;;10.17;100.00;102327.88;7393082;19;20444;-39
2023/06/01 00:10:48;;;;;;;14.33;4.97;;;;;;;10.12;100.00;102323.28;7394874;19;20409;-39
2023/06/01 00:13:17;;;;;;;16.13;4.80;;;;;;;10.05;100.00;102323.66;7392844;19;20818;-38
2023/06/01 00:15:47;;;;;;;13.37;4.23;;;;;;;10.13;100.00;102322.53;7395478;19;20436;-38
2023/06/01 00:18:17;;;;;;;16.77;5.77;;;;;;;10.14;100.00;102331.16;7395853;19;20625;-39
2023/06/01 00:20:47;;;;;;;14.50;4.30;;;;;;;10.08;100.00;102330.72;7397999;19;20412;-39
2023/06/01 00:23:19;;;;;;;11.70;5.00;;;;;;;10.18;100.00;102322.84;7394215;19;20535;-39
2023/06/01 00:25:49;;;;;;;22.43;6.90;;;;;;;10.23;100.00;102318.91;7397011;19;20417;-39
2023/06/01 00:28:19;;;;;;;17.37;7.07;;;;;;;10.21;100.00;102314.41;7394639;19;20451;-38
2023/06/01 00:30:48;;;;;;;12.50;4.90;;;;;;;10.11;100.00;102313.78;7396962;19;20416;-39
2023/06/01 00:33:18;;;;;;;11.87;4.93;;;;;;;10.07;100.00;102316.03;7392797;19;20493;-39
2023/06/01 00:35:47;;;;;;;12.83;4.90;;;;;;;9.96;100.00;102318.75;7395295;19;20946;-38
2023/06/01 00:38:20;;;;;;;13.67;5.13;;;;;;;9.96;100.00;102323.91;7393639;19;20966;-40
2023/06/01 00:40:50;;;;;;;10.60;4.87;;;;;;;9.98;100.00;102316.31;7395430;19;20893;-39
2023/06/01 00:43:21;;;;;;;19.33;5.40;;;;;;;10.03;100.00;102314.03;7392716;19;20496;-38
2023/06/01 00:45:51;;;;;;;16.87;5.03;;;;;;;10.10;100.00;102314.56;7398226;19;20416;-40
2023/06/01 00:48:20;;;;;;;10.10;5.03;;;;;;;10.10;100.00;102309.41;7395443;19;20518;-46
2023/06/01 00:50:50;;;;;;;15.80;6.90;;;;;;;10.16;100.00;102305.47;7397318;19;20410;-40
2023/06/01 00:53:23;;;;;;;13.10;6.20;;;;;;;10.09;100.00;102307.63;7393868;19;20449;-39
2023/06/01 00:55:52;;;;;;;13.60;5.23;;;;;;;10.04;100.00;102302.94;7396183;19;20408;-39
2023/06/01 00:58:22;;;;;;;16.90;6.37;;;;;;;10.02;100.00;102292.53;7393903;19;20443;-39
2023/06/01 01:00:53;;;;;;;16.60;7.13;;;;;;;9.98;100.00;102287.94;7395932;19;20809;-41
2023/06/01 01:03:25;;;;;;;15.60;7.67;;;;;;;9.93;100.00;102282.47;7393076;19;20873;-39
2023/06/01 01:06:14;;;;;;;17.63;6.50;;;;;;;9.97;100.00;102283.56;7396013;19;20837;-40
2023/06/01 01:08:50;;;;;;;17.37;7.13;;;;;;;9.95;100.00;102274.84;7393655;19;20441;-40
2023/06/01 01:11:23;;;;;;;19.73;6.40;;;;;;;10.01;100.00;102264.97;7394746;19;20519;-39
2023/06/01 01:13:56;;;;;;;18.37;6.97;;;;;;;10.07;100.00;102265.38;7393954;19;20448;-40
2023/06/01 01:16:30;;;;;;;16.10;6.20;;;;;;;10.07;100.00;102249.91;7395891;19;20412;-40
2023/06/01 01:19:03;;;;;;;16.40;7.10;;;;;;;10.13;100.00;102241.66;7399380;19;20441;-41
2023/06/01 01:21:35;;;;;;;17.47;6.50;;;;;;;9.97;100.00;102234.59;7394534;19;20481;-40
2023/06/01 01:24:18;;;;;;;13.90;7.47;;;;;;;10.01;100.00;102241.75;7393617;19;20447;-39
2023/06/01 01:26:55;;;;;;;22.83;9.00;;;;;;;9.97;100.00;102226.84;7392263;19;20419;-39
2023/06/01 01:29:29;;;;;;;19.93;9.83;;;;;;;9.99;100.00;102236.47;7394381;19;20418;-39
2023/06/01 01:31:58;;;;;;;15.10;8.70;;;;;;;10.10;100.00;102242.34;7391616;19;20412;-40
2023/06/01 01:34:30;;;;;;;24.00;9.33;;;;;;;10.08;100.00;102231.06;7394390;19;20416;-39
2023/06/01 01:37:00;;;;;;;20.77;9.33;;;;;;;10.01;100.00;102218.53;7391733;19;20524;-39
2023/06/01 01:39:29;;;;;;;23.10;8.77;;;;;;;9.98;100.00;102213.16;7394929;19;20490;-39
2023/06/01 01:42:00;;;;;;;21.43;10.03;;;;;;;10.08;100.00;102205.25;7390669;19;20511;-40
2023/06/01 01:44:32;;;;;;;23.83;8.93;;;;;;;9.96;100.00;102200.16;7394125;19;20437;-39
2023/06/01 01:47:12;;;;;;;17.23;8.57;;;;;;;9.95;100.00;102195.78;7392430;19;20969;-39
2023/06/01 01:49:44;;;;;;;19.50;8.07;;;;;;;9.95;100.00;102194.91;7397324;19;20401;-39
2023/06/01 01:52:18;;;;;;;16.17;7.30;;;;;;;9.92;100.00;102187.88;7390515;19;20443;-39
2023/06/01 01:54:48;;;;;;;18.13;7.13;;;;;;;9.88;100.00;102185.00;7395956;19;20419;-40
2023/06/01 01:57:19;;;;;;;15.63;6.10;;;;;;;9.85;100.00;102183.97;7390585;19;20982;-39
2023/06/01 01:59:52;;;;;;;20.07;8.47;;;;;;;10.02;100.00;102191.97;7394638;19;20434;-38
2023/06/01 02:02:21;;;;;;;16.60;7.30;;;;;;;10.07;100.00;102185.44;7390099;19;20446;-40
2023/06/01 02:04:51;;;;;;;17.73;6.60;;;;;;;9.98;100.00;102177.97;7396000;19;20488;-38
2023/06/01 02:07:21;;;;;;;14.60;7.30;;;;;;;10.00;100.00;102180.63;7390319;19;20473;-41
2023/06/01 02:09:50;;;;;;;14.50;7.37;;;;;;;9.94;100.00;102175.09;7395833;19;20419;-41
2023/06/01 02:12:20;;;;;;;13.20;6.03;;;;;;;10.04;100.00;102179.19;7389632;19;20439;-38
2023/06/01 02:14:52;;;;;;;18.10;6.67;;;;;;;10.00;100.00;102176.38;7394650;19;20408;-38
2023/06/01 02:17:24;;;;;;;13.50;6.53;;;;;;;10.03;100.00;102170.53;7390034;19;20498;-39
2023/06/01 02:19:54;;;;;;;19.23;7.30;;;;;;;10.09;100.00;102165.78;7395908;19;20488;-39
2023/06/01 02:22:24;;;;;;;14.83;7.67;;;;;;;10.02;100.00;102153.28;7392611;19;20521;-39
2023/06/01 02:24:55;;;;;;;18.00;7.60;;;;;;;10.03;100.00;102164.47;7396812;19;20412;-40
2023/06/01 02:27:25;;;;;;;14.93;6.50;;;;;;;9.95;100.00;102163.97;7392484;19;20506;-41
2023/06/01 02:29:57;;;;;;;20.70;8.33;;;;;;;9.93;100.00;102158.72;7394561;19;20491;-39
2023/06/01 02:32:30;;;;;;;21.83;8.90;;;;;;;10.00;100.00;102165.16;7391646;19;20518;-39
2023/06/01 02:35:00;;;;;;;19.33;9.40;;;;;;;9.95;100.00;102151.97;7400496;19;20415;-39
2023/06/01 02:37:29;;;;;;;15.67;7.80;;;;;;;9.92;100.00;102156.03;7396971;19;20445;-39
2023/06/01 02:39:59;;;;;;;21.07;8.10;;;;;;;10.00;100.00;102145.44;7402964;19;20771;-38
2023/06/01 02:42:29;;;;;;;15.93;7.97;;;;;;;10.11;100.00;102142.69;7396677;19;20439;-38
2023/06/01 02:45:01;;;;;;;12.13;6.60;;;;;;;10.06;100.00;102128.59;7399051;19;20775;-39
2023/06/01 02:47:31;;;;;;;18.13;7.40;;;;;;;9.98;100.00;102122.91;7397243;19;20535;-40
2023/06/01 02:50:00;;;;;;;15.00;7.93;;;;;;;10.02;100.00;102126.59;7400471;19;20435;-40
2023/06/01 02:52:30;;;;;;;17.83;7.60;;;;;;;10.00;100.00;102124.81;7396499;19;20514;-39
2023/06/01 02:55:00;;;;;;;19.87;8.10;;;;;;;9.95;100.00;102115.88;7399959;19;20419;-38
2023/06/01 02:57:29;;;;;;;16.83;8.10;;;;;;;10.03;100.00;102125.78;7396134;19;20436;-40
2023/06/01 03:00:02;;;;;;;16.20;7.90;;;;;;;9.99;100.00;102117.88;7400050;19;20761;-39
2023/06/01 03:02:32;;;;;;;20.43;7.60;;;;;;;10.00;100.00;102118.75;7396467;19;20444;-40
2023/06/01 03:05:06;;;;;;;27.00;11.93;;;;;;;10.50;100.00;102147.78;7399143;19;20408;-39
2023/06/01 03:07:35;;;;;;;59.00;29.60;;;;;;;10.51;100.00;102131.53;7396576;19;20439;-39
2023/06/01 03:10:06;;;;;;;14.90;7.23;;;;;;;10.52;100.00;102094.59;7399576;19;20457;-39
2023/06/01 03:12:36;;;;;;;23.90;6.80;;;;;;;10.13;100.00;102069.78;7396362;19;20462;-40
2023/06/01 03:15:09;;;;;;;17.60;6.97;;;;;;;10.12;100.00;102067.97;7398707;19;20411;-39
2023/06/01 03:17:39;;;;;;;20.43;9.40;;;;;;;10.04;100.00;102053.69;7397012;19;20447;-39
2023/06/01 03:20:14;;;;;;;26.80;12.93;;;;;;;10.26;100.00;102062.84;7402363;19;20419;-39
2023/06/01 03:22:44;;;;;;;19.10;7.30;;;;;;;10.31;100.00;102033.03;7399100;19;20466;-39
2023/06/01 03:25:16;;;;;;;22.40;8.97;;;;;;;10.37;100.00;102012.78;7401398;19;20424;-40
2023/06/01 03:27:46;;;;;;;22.30;6.53;;;;;;;10.15;100.00;102009.66;7397798;19;21023;-40
2023/06/01 03:30:18;;;;;;;19.00;7.10;;;;;;;10.21;100.00;102002.31;7399197;19;20760;-39
2023/06/01 03:32:48;;;;;;;22.53;7.30;;;;;;;10.23;100.00;101987.81;7399507;19;20867;-39
2023/06/01 03:35:17;;;;;;;13.40;7.20;;;;;;;10.28;100.00;101978.69;7400979;19;20496;-41
2023/06/01 03:37:48;;;;;;;17.33;7.87;;;;;;;10.19;100.00;101980.69;7396201;19;20448;-39
2023/06/01 03:40:17;;;;;;;16.87;7.47;;;;;;;10.44;100.00;101985.72;7401321;19;20420;-39
2023/06/01 03:42:49;;;;;;;15.63;7.60;;;;;;;10.51;100.00;101959.50;7396388;19;20444;-41
2023/06/01 03:45:21;;;;;;;20.20;8.03;;;;;;;10.56;100.00;101946.00;7399642;19;20418;-38
2023/06/01 03:47:50;;;;;;;18.40;7.33;;;;;;;10.29;100.00;101931.47;7398818;19;20532;-39
2023/06/01 03:50:20;;;;;;;14.40;7.10;;;;;;;10.32;100.00;101939.41;7398143;19;20412;-39
2023/06/01 03:52:50;;;;;;;15.67;7.90;;;;;;;10.12;100.00;101946.75;7396721;19;20531;-38
2023/06/01 03:55:19;;;;;;;20.03;7.70;;;;;;;10.04;100.00;101941.94;7396713;19;20468;-37
2023/06/01 03:57:49;;;;;;;17.50;7.40;;;;;;;10.12;100.00;101944.19;7396351;19;20464;-40
2023/06/01 04:00:23;;;;;;;15.53;6.73;;;;;;;10.08;100.00;101937.06;7396994;19;20410;-38
2023/06/01 04:02:54;;;;;;;15.17;7.53;;;;;;;10.22;100.00;101942.19;7395010;19;20441;-39
2023/06/01 04:05:25;;;;;;;17.10;8.30;;;;;;;10.01;100.00;101940.06;7395786;19;20445;-39
2023/06/01 04:07:56;;;;;;;20.10;7.57;;;;;;;10.36;100.00;101948.22;7395669;19;20439;-39
2023/06/01 04:10:26;;;;;;;15.40;6.97;;;;;;;10.23;100.00;101919.09;7398049;19;20789;-39
2023/06/01 04:12:55;;;;;;;18.53;7.77;;;;;;;10.46;100.00;101932.53;7395915;19;20531;-40
2023/06/01 04:15:27;;;;;;;18.47;8.73;;;;;;;10.23;100.00;101905.28;7397284;19;20487;-39
2023/06/01 04:17:57;;;;;;;27.30;10.73;;;;;;;10.28;100.00;101924.53;7395073;19;20431;-40
2023/06/01 04:20:27;;;;;;;22.57;8.50;;;;;;;10.16;100.00;101929.81;7396391;19;20394;-38
2023/06/01 04:22:56;;;;;;;23.43;8.70;;;;;;;10.43;100.00;101940.09;7394756;19;20444;-39
2023/06/01 04:25:28;;;;;;;15.07;7.80;;;;;;;10.33;100.00;101906.75;7396540;19;20973;-40
2023/06/01 04:27:58;;;;;;;30.80;12.90;;;;;;;10.23;100.00;101918.19;7394779;19;20447;-40
2023/06/01 04:30:30;;;;;;;22.10;9.80;;;;;;;10.52;100.00;101939.75;7396960;19;20412;-40
2023/06/01 04:33:00;;;;;;;21.13;9.67;;;;;;;10.41;100.00;101890.03;7396234;19;20455;-39
2023/06/01 04:35:30;;;;;;;14.90;8.23;;;;;;;10.64;100.00;101882.81;7402152;19;20410;-40
2023/06/01 04:38:00;;;;;;;32.27;15.23;;;;;;;10.77;100.00;101884.44;7395604;19;20477;-40
2023/06/01 04:40:30;;;;;;;19.60;7.60;;;;;;;10.77;100.00;101854.34;7398173;19;20414;-39
2023/06/01 04:43:02;;;;;;;15.83;7.73;;;;;;;10.39;100.00;101845.19;7395217;19;20458;-39
2023/06/01 04:45:38;;;;;;;19.80;7.20;;;;;;;10.25;100.00;101850.41;7396454;19;20805;-39
2023/06/01 04:48:08;;;;;;;23.37;8.80;;;;;;;10.39;100.00;101871.91;7395192;19;20519;-39
2023/06/01 04:50:38;;;;;;;31.53;9.73;;;;;;;10.56;100.00;101879.78;7397282;19;20768;-39
2023/06/01 04:53:08;;;;;;;22.43;7.53;;;;;;;10.63;100.00;101852.66;7394987;19;20548;-41
2023/06/01 04:55:37;;;;;;;13.00;7.00;;;;;;;10.42;100.00;101840.25;7396189;19;20402;-38
2023/06/01 04:58:07;;;;;;;19.00;7.40;;;;;;;10.46;100.00;101831.03;7393095;19;21013;-39
2023/06/01 05:00:39;;;;;;;20.90;7.53;;;;;;;10.31;100.00;101841.28;7396790;19;20444;-40
2023/06/01 05:03:09;;;;;;;14.83;6.17;;;;;;;10.37;100.00;101829.63;7394209;19;20442;-39
2023/06/01 05:05:39;;;;;;;14.10;6.33;;;;;;;10.21;100.00;101834.66;7396214;19;20426;-39
2023/06/01 05:08:10;;;;;;;24.27;5.77;;;;;;;10.18;100.00;101847.38;7393826;19;20441;-40
2023/06/01 05:10:40;;;;;;;14.20;5.87;;;;;;;10.19;100.00;101842.31;7396436;19;20480;-39
2023/06/01 05:13:10;;;;;;;15.90;6.30;;;;;;;10.18;100.00;101856.00;7394483;19;20443;-40
2023/06/01 05:15:42;;;;;;;14.87;6.40;;;;;;;10.10;100.00;101858.09;7395459;19;20488;-40
2023/06/01 05:18:12;;;;;;;15.23;6.30;;;;;;;10.12;100.00;101861.66;7391981;19;20461;-41
2023/06/01 05:20:41;;;;;;;17.70;6.57;;;;;;;10.09;100.00;101871.81;7395900;19;20407;-39
2023/06/01 05:23:11;;;;;;;19.03;6.30;;;;;;;10.11;100.00;101870.19;7395067;19;20458;-39
2023/06/01 05:25:41;;;;;;;34.83;8.47;;;;;;;10.11;100.00;101870.19;7387769;19;20484;-36
2023/06/01 05:28:10;;;;;;;18.60;7.50;;;;;;;10.11;100.00;101865.03;7390742;19;20456;-35
2023/06/01 05:30:43;;;;;;;15.43;6.40;;;;;;;10.18;100.00;101860.25;7395037;19;20479;-35
2023/06/01 05:33:12;;;;;;;16.63;7.00;;;;;;;10.22;100.00;101872.56;7392001;19;20541;-36
2023/06/01 05:35:42;;;;;;;12.63;6.03;;;;;;;10.21;100.00;101870.78;7394393;19;20448;-34
2023/06/01 05:38:11;;;;;;;16.17;5.87;;;;;;;10.18;100.00;101874.06;7388952;19;20447;-35
2023/06/01 05:40:41;;;;;;;17.87;5.80;;;;;;;10.20;100.00;101877.63;7394724;19;20434;-35
2023/06/01 05:43:10;;;;;;;19.63;6.20;;;;;;;10.03;100.00;101871.44;7392093;19;20444;-35
2023/06/01 05:45:42;;;;;;;15.57;6.00;;;;;;;10.03;100.00;101884.31;7393730;19;20508;-35
2023/06/01 05:48:14;;;;;;;19.50;5.73;;;;;;;9.99;100.00;101865.19;7391372;19;20444;-35
2023/06/01 05:50:44;;;;;;;18.13;5.67;;;;;;;10.04;100.00;101862.03;7396147;19;20403;-35
2023/06/01 05:53:13;;;;;;;9.90;4.53;;;;;;;9.98;100.00;101858.25;7390900;19;20503;-36
2023/06/01 05:55:45;;;;;;;15.00;4.97;;;;;;;10.06;100.00;101860.41;7393485;19;20456;-35
2023/06/01 05:58:15;;;;;;;17.87;5.23;;;;;;;10.17;100.00;101864.53;7389877;19;20452;-36
2023/06/01 06:00:47;;;;;;;13.63;5.00;;;;;;;10.19;100.00;101849.13;7395136;19;20401;-35
2023/06/01 06:03:17;;;;;;;17.60;6.00;;;;;;;10.17;100.00;101849.06;7390495;19;20471;-35
2023/06/01 06:05:47;;;;;;;13.27;5.40;;;;;;;10.19;100.00;101846.56;7392981;19;20452;-35
2023/06/01 06:08:17;;;;;;;18.70;6.43;;;;;;;10.21;100.00;101852.72;7388267;19;20524;-36
2023/06/01 06:10:46;;;;;;;15.20;5.30;;;;;;;10.34;100.00;101852.66;7393404;19;20850;-36
2023/06/01 06:13:17;;;;;;;14.30;6.10;;;;;;;10.26;100.00;101853.91;7389317;19;21005;-33
2023/06/01 06:15:49;;;;;;;15.90;5.17;;;;;;;10.34;100.00;101863.00;7393925;19;20445;-33
2023/06/01 06:18:19;;;;;;;16.30;5.37;;;;;;;10.42;100.00;101849.66;7389202;19;20441;-33
2023/06/01 06:20:49;;;;;;;12.50;5.27;;;;;;;10.43;100.00;101841.13;7392690;19;20397;-34
2023/06/01 06:23:18;;;;;;;14.73;5.13;;;;;;;10.45;100.00;101849.88;7389892;19;20435;-33
2023/06/01 06:25:48;;;;;;;12.27;3.70;;;;;;;10.43;100.00;101851.47;7391872;19;20522;-34
2023/06/01 06:28:18;;;;;;;19.50;4.40;;;;;;;10.34;100.00;101844.03;7390498;19;20453;-33
2023/06/01 06:30:50;;;;;;;20.30;3.93;;;;;;;10.30;100.00;101835.22;7393285;19;20488;-38
2023/06/01 06:33:20;;;;;;;17.10;4.77;;;;;;;10.22;100.00;101821.88;7389308;19;20962;-35
2023/06/01 06:35:50;;;;;;;16.13;5.10;;;;;;;10.33;100.00;101845.72;7392434;19;20445;-35
2023/06/01 06:38:19;;;;;;;19.30;5.93;;;;;;;10.30;100.00;101835.22;7389278;19;20452;-35
2023/06/01 06:40:50;;;;;;;16.13;4.87;;;;;;;10.29;100.00;101837.72;7391989;19;20936;-35
2023/06/01 06:43:20;;;;;;;11.13;4.13;;;;;;;10.34;100.00;101836.28;7390897;19;20432;-36
2023/06/01 06:45:52;;;;;;;13.83;4.30;;;;;;;10.38;100.00;101841.75;7391488;19;20474;-36
2023/06/01 06:48:21;;;;;;;14.77;3.90;;;;;;;10.49;100.00;101824.34;7389285;19;20541;-35
2023/06/01 06:50:51;;;;;;;16.50;3.60;;;;;;;10.45;100.00;101798.28;7391650;19;20822;-35
2023/06/01 06:53:21;;;;;;;11.33;3.90;;;;;;;10.52;100.00;101780.66;7389871;19;20444;-35
2023/06/01 06:55:50;;;;;;;9.30;3.23;;;;;;;10.48;100.00;101767.47;7392764;19;20464;-35
2023/06/01 06:58:20;;;;;;;9.20;3.47;;;;;;;10.61;100.00;101736.41;7388762;19;20459;-35
2023/06/01 07:00:52;;;;;;;13.47;3.60;;;;;;;10.72;100.00;101710.34;7391114;19;20500;-35
2023/06/01 07:03:22;;;;;;;15.63;3.53;;;;;;;10.65;100.00;101699.69;7384205;19;20475;-35
2023/06/01 07:05:52;;;;;;;20.80;5.70;;;;;;;10.60;100.00;101690.78;7389995;19;20453;-35
2023/06/01 07:08:22;;;;;;;27.23;10.00;;;;;;;10.57;100.00;101700.03;7386653;19;20548;-36
2023/06/01 07:10:51;;;;;;;11.27;4.17;;;;;;;10.72;100.00;101713.78;7391059;19;20412;-35
2023/06/01 07:13:21;;;;;;;14.83;4.47;;;;;;;10.77;100.00;101704.63;7388876;19;20797;-35
2023/06/01 07:15:53;;;;;;;7.33;3.00;;;;;;;10.84;100.00;101703.28;7390224;19;20452;-35
2023/06/01 07:18:23;;;;;;;10.60;2.83;;;;;;;10.92;100.00;101672.75;7387634;19;20450;-36
2023/06/01 07:20:52;;;;;;;14.80;5.80;;;;;;;10.96;100.00;101645.41;7397376;19;20402;-35
2023/06/01 07:23:22;;;;;;;9.03;3.10;;;;;;;10.92;100.00;101632.31;7395115;19;20445;-42
2023/06/01 07:25:52;;;;;;;35.70;12.73;;;;;;;10.84;100.00;101627.53;7396195;19;20438;-35
2023/06/01 07:28:26;;;;;;;12.80;4.20;;;;;;;10.84;100.00;101649.06;7394240;19;20443;-35
2023/06/01 07:30:59;;;;;;;11.27;3.07;;;;;;;10.80;100.00;101649.69;7397854;19;20417;-35
2023/06/01 07:33:33;;;;;;;9.63;2.60;;;;;;;10.88;100.00;101640.66;7389467;19;20449;-35
2023/06/01 07:36:03;;;;;;;21.60;7.93;;;;;;;10.98;100.00;101620.53;7397143;19;20466;-35
2023/06/01 07:38:33;;;;;;;12.33;3.17;;;;;;;10.96;100.00;101604.94;7392647;19;20442;-35
2023/06/01 07:41:03;;;;;;;14.30;3.97;;;;;;;11.01;100.00;101606.09;7400794;19;20484;-35
2023/06/01 07:43:33;;;;;;;16.10;3.50;;;;;;;11.01;100.00;101610.34;7396026;19;20407;-35
2023/06/01 07:46:05;;;;;;;12.10;2.83;;;;;;;11.11;100.00;101607.47;7397651;19;20443;-35
2023/06/01 07:48:38;;;;;;;24.27;9.80;;;;;;;11.13;100.00;101605.84;7368550;19;20501;-35
2023/06/01 07:51:08;;;;;;;21.67;6.37;;;;;;;11.18;100.00;101596.66;7399170;19;20404;-35
2023/06/01 07:53:38;;;;;;;13.30;3.33;;;;;;;11.25;100.00;101603.03;7370180;19;20430;-35
2023/06/01 07:56:08;;;;;;;8.43;2.30;;;;;;;11.13;100.00;101587.75;7396209;19;20547;-36
2023/06/01 07:58:37;;;;;;;23.37;8.20;;;;;;;11.04;100.00;101570.09;7369612;19;20525;-35
2023/06/01 08:01:10;;;;;;;18.63;6.07;;;;;;;11.14;100.00;101570.59;7396645;19;20406;-35
2023/06/01 08:03:45;;;;;;;13.13;3.07;;;;;;;11.28;100.00;101579.06;7369161;19;20509;-35
2023/06/01 08:06:15;;;;;;;20.50;5.27;;;;;;;11.34;100.00;101574.22;7395905;19;20437;-35
2023/06/01 08:08:45;;;;;;;15.67;3.80;;;;;;;11.40;100.00;101538.38;7371315;19;20444;-35
2023/06/01 08:11:15;;;;;;;14.07;4.50;;;;;;;11.35;100.00;101516.56;7394458;19;20404;-35
2023/06/01 08:13:46;;;;;;;21.17;7.50;;;;;;;11.44;100.00;101522.19;7370721;19;20425;-35
2023/06/01 08:16:18;;;;;;;11.77;2.97;;;;;;;11.41;100.00;101500.47;7394924;19;20446;-35
2023/06/01 08:18:48;;;;;;;16.10;3.50;;;;;;;11.61;100.00;101498.88;7368576;19;20428;-36
2023/06/01 08:21:18;;;;;;;12.80;5.00;;;;;;;11.57;100.00;101509.88;7395299;19;20419;-36
2023/06/01 08:23:48;;;;;;;17.13;5.37;;;;;;;11.56;100.00;101515.88;7395849;19;20773;-35
2023/06/01 08:26:18;;;;;;;16.10;3.10;;;;;;;11.54;100.00;101525.25;7367447;19;20466;-35
2023/06/01 08:28:51;;;;;;;14.13;4.50;;;;;;;11.63;100.00;101536.03;7398207;19;20410;-35
2023/06/01 08:31:26;;;;;;;10.57;4.03;;;;;;;11.78;100.00;101540.22;7367253;19;20471;-35
2023/06/01 08:33:56;;;;;;;8.13;2.73;;;;;;;11.85;100.00;101555.22;7395583;19;20938;-36
2023/06/01 08:36:25;;;;;;;19.77;4.63;;;;;;;11.81;100.00;101551.59;7367443;19;20492;-35
2023/06/01 08:38:57;;;;;;;18.80;7.00;;;;;;;11.95;100.00;101533.28;7395967;19;20410;-35
2023/06/01 08:44:24;;;;;;;28.57;10.20;;;;;;;11.90;100.00;101447.72;7377954;19;20563;-35
2023/06/01 08:46:53;;;;;;;15.63;5.47;;;;;;;11.77;100.00;101456.56;7420377;19;20409;-37
2023/06/01 08:49:21;;;;;;;9.90;3.13;;;;;;;11.87;100.00;101457.91;7409707;19;20414;-35
2023/06/01 08:51:53;;;;;;;34.63;11.40;;;;;;;11.88;100.00;101397.63;7423065;19;20413;-35
2023/06/01 08:54:22;;;;;;;31.57;12.13;;;;;;;11.97;100.00;101366.13;7423672;19;20443;-35
2023/06/01 08:56:50;;;;;;;12.73;4.60;;;;;;;12.10;100.00;101352.97;7389622;19;20394;-36
2023/06/01 08:59:18;;;;;;;25.30;8.80;;;;;;;11.96;100.00;101349.75;7417892;19;20427;-35
2023/06/01 09:01:50;;;;;;;11.20;3.97;;;;;;;11.99;100.00;101362.78;7220635;19;3375386;-35
2023/06/01 09:04:20;;;;;;;10.23;4.10;;;;;;;12.05;100.00;101343.25;7422631;19;20159;-35
2023/06/01 09:06:50;;;;;;;20.27;7.20;;;;;;;12.28;100.00;101347.75;7399534;19;20438;-35
2023/06/01 09:09:21;;;;;;;19.40;8.33;;;;;;;12.53;100.00;101315.19;7427772;19;20414;-35
2023/06/01 09:12:21;;;;;;;39.43;16.40;;;;;;;12.62;100.00;101306.88;7402960;19;20407;-35
2023/06/01 09:14:51;;;;;;;23.73;8.90;;;;;;;12.54;100.00;101297.91;7429393;19;20964;-35
2023/06/01 09:17:26;;;;;;;23.53;7.50;;;;;;;12.55;100.00;101310.94;7401181;19;20809;-35
2023/06/01 09:19:57;;;;;;;12.23;4.17;;;;;;;12.62;100.00;101290.50;7429618;19;20409;-35
2023/06/01 09:22:27;;;;;;;16.07;6.33;;;;;;;12.51;100.00;101293.50;7401102;19;21164;-35
2023/06/01 09:24:58;;;;;;;26.03;11.27;;;;;;;12.46;100.00;101295.00;7427966;19;20769;-36
2023/06/01 09:27:28;;;;;;;64.20;34.00;;;;;;;12.64;100.00;101325.06;7400976;19;20494;-36
2023/06/01 09:29:59;;;;;;;26.30;8.80;;;;;;;12.54;100.00;101290.16;7427236;19;20475;-35
2023/06/01 09:32:32;;;;;;;24.00;10.83;;;;;;;12.63;100.00;101302.59;7400184;19;20476;-35
2023/06/01 09:35:01;;;;;;;25.53;9.90;;;;;;;12.71;100.00;101290.00;7429290;19;20434;-35
2023/06/01 09:37:31;;;;;;;17.83;4.50;;;;;;;12.44;100.00;101281.13;7401692;19;20511;-36
2023/06/01 09:40:01;;;;;;;17.90;4.37;;;;;;;12.35;100.00;101268.66;7427149;19;20418;-35
2023/06/01 09:42:35;;;;;;;17.60;7.13;;;;;;;12.49;100.00;101278.72;7398128;19;20451;-35
2023/06/01 09:45:18;;;;;;;15.00;3.40;;;;;;;12.51;100.00;101257.25;7424962;19;20413;-35
2023/06/01 09:47:50;;;;;;;24.27;5.30;;;;;;;12.57;100.00;101261.81;7397802;19;20410;-36
2023/06/01 09:50:36;;;;;;;11.67;3.40;;;;;;;12.73;100.00;101276.28;7423132;19;20424;-35
2023/06/01 09:53:06;;;;;;;12.20;3.20;;;;;;;12.73;100.00;101258.16;7395418;19;20445;-35
2023/06/01 09:55:35;;;;;;;9.43;2.70;;;;;;;12.69;100.00;101276.97;7395836;19;20391;-35
2023/06/01 09:58:21;;;;;;;24.80;7.47;;;;;;;12.64;100.00;101262.94;7369338;19;21052;-35
2023/06/01 10:00:52;;;;;;;8.70;2.77;;;;;;;12.59;100.00;101259.28;7394622;19;20432;-35
2023/06/01 10:03:25;;;;;;;15.27;3.77;;;;;;;12.58;100.00;101266.19;7222627;19;2794080;-35
2023/06/01 10:05:55;;;;;;;28.53;8.33;;;;;;;12.77;100.00;101257.44;7392356;19;20405;-35
2023/06/01 10:08:24;;;;;;;16.63;6.20;;;;;;;12.72;100.00;101250.34;7369836;19;20536;-35
2023/06/01 10:10:54;;;;;;;15.27;4.50;;;;;;;12.66;100.00;101230.22;7395947;19;20376;-35
2023/06/01 10:13:24;;;;;;;12.93;2.77;;;;;;;12.76;100.00;101227.22;7366722;19;20464;-35
2023/06/01 10:15:56;;;;;;;15.50;5.87;;;;;;;12.82;100.00;101221.41;7395445;19;20487;-36
2023/06/01 10:18:28;;;;;;;21.53;7.20;;;;;;;12.86;100.00;101214.66;7369838;19;20401;-36
2023/06/01 10:20:58;;;;;;;13.20;3.10;;;;;;;13.00;100.00;101209.97;7395768;19;20417;-35
2023/06/01 10:23:28;;;;;;;16.03;4.57;;;;;;;13.14;100.00;101210.53;7368479;19;20429;-35
2023/06/01 10:26:02;;;;;;;30.40;9.63;;;;;;;13.07;100.00;101197.34;7398212;19;20806;-35
2023/06/01 10:28:32;;;;;;;36.87;10.87;;;;;;;13.23;100.00;101208.31;7370513;19;20966;-35
2023/06/01 10:31:32;;;;;;;46.90;16.60;;;;;;;13.37;100.00;101208.81;7387537;19;20388;-33
2023/06/01 10:34:05;;;;;;;14.33;4.93;;;;;;;13.16;100.00;101219.22;7392330;19;20494;-35
2023/06/01 10:37:04;;;;;;;15.83;4.73;;;;;;;13.20;100.00;101209.06;7368150;19;20399;-35
2023/06/01 10:39:35;;;;;;;31.73;10.23;;;;;;;13.16;100.00;101220.13;7393453;19;21366;-35
2023/06/01 10:42:39;;;;;;;11.60;3.10;;;;;;;13.12;100.00;101226.00;7367596;19;20395;-35
2023/06/01 10:45:39;;;;;;;22.47;6.77;;;;;;;13.28;100.00;101231.78;7392096;19;20415;-35
2023/06/01 10:48:11;;;;;;;16.33;3.27;;;;;;;13.17;100.00;101221.03;7368316;19;20403;-35
2023/06/01 10:50:44;;;;;;;10.07;3.10;;;;;;;13.41;100.00;101222.75;7395531;19;21287;-35
2023/06/01 10:53:28;;;;;;;21.90;6.87;;;;;;;13.31;100.00;101216.34;7367835;19;20459;-35
2023/06/01 10:56:23;;;;;;;17.83;5.10;;;;;;;13.19;100.00;101215.06;7391461;19;20381;-35
2023/06/01 10:59:14;;;;;;;19.30;4.20;;;;;;;13.24;100.00;101215.25;7370751;19;20420;-36
2023/06/01 11:01:49;;;;;;;16.77;4.83;;;;;;;13.16;100.00;101229.59;7367053;19;20399;-34
2023/06/01 11:04:37;;;;;;;11.23;3.80;;;;;;;12.90;100.00;101229.47;7390128;19;20401;-35
2023/06/01 11:07:37;;;;;;;18.67;8.30;;;;;;;12.82;100.00;101248.16;7365301;19;20763;-34
2023/06/01 11:10:10;;;;;;;22.80;7.00;;;;;;;12.62;100.00;101269.78;7391935;19;20391;-35
2023/06/01 11:13:17;;;;;;;36.13;13.23;;;;;;;12.65;100.00;101285.41;7367172;19;20520;-35
2023/06/01 11:16:20;;;;;;;29.63;14.17;;;;;;;12.70;100.00;101289.09;7396024;19;20422;-35
2023/06/01 11:18:57;;;;;;;16.57;4.70;;;;;;;12.81;100.00;101261.03;7375249;19;20448;-35
2023/06/01 11:21:28;;;;;;;16.80;4.30;;;;;;;13.18;100.00;101249.56;7370647;19;20397;-35
2023/06/01 11:24:00;;;;;;;24.67;7.83;;;;;;;13.25;100.00;101217.00;7392050;19;21019;-35
2023/06/01 11:26:40;;;;;;;14.97;5.40;;;;;;;13.39;100.00;101193.31;7364801;19;20795;-35
2023/06/01 11:29:13;;;;;;;18.27;4.10;;;;;;;13.42;100.00;101193.41;7393301;19;20414;-35
2023/06/01 11:31:45;;;;;;;13.63;2.60;;;;;;;13.60;100.00;101204.50;7371425;19;20411;-36
2023/06/01 11:34:18;;;;;;;22.07;5.93;;;;;;;13.41;100.00;101187.38;7393225;19;20733;-33